Time;durP1;ratioP1;P1;durP2;ratioP2;P2;SDS_P1;SDS_P2;PMS_P1;PMS_P2;Temp;Humidity;BMP_temperature;BMP_pressure;BME280_temperature;BME280_humidity;BME280_pressure;Samples;Min_cycle;Max_cycle;Signal;HPM_P1;HPM_P2
2021/01/18 00:00:33;;;;;;;203.87;71.90;;;;;;;-15.22;68.08;100807.31;120577;1151;104501;-81
2021/01/18 00:03:09;;;;;;;212.47;79.97;;;;;;;-15.27;68.29;100802.80;120493;1151;104458;-81
2021/01/18 00:05:37;;;;;;;232.05;83.95;;;;;;;-15.30;68.41;100811.70;120460;1151;104483;-81
2021/01/18 00:08:04;;;;;;;229.75;85.77;;;;;;;-15.29;68.61;100800.94;120492;1151;103112;-81
2021/01/18 00:10:32;;;;;;;246.00;90.35;;;;;;;-15.34;68.51;100802.21;120489;1151;104319;-82
2021/01/18 00:13:00;;;;;;;255.80;94.75;;;;;;;-15.39;68.38;100799.36;120526;1151;104778;-82
2021/01/18 00:15:27;;;;;;;268.67;96.00;;;;;;;-15.39;69.01;100796.86;120506;1150;104653;-82
2021/01/18 00:17:55;;;;;;;280.17;97.10;;;;;;;-15.37;68.92;100797.84;120534;1151;103125;-82
2021/01/18 00:20:23;;;;;;;269.18;92.67;;;;;;;-15.38;68.88;100803.61;120480;1152;105531;-82
2021/01/18 00:22:50;;;;;;;284.77;100.03;;;;;;;-15.43;68.79;100804.00;120452;1151;104484;-82
2021/01/18 00:25:23;;;;;;;268.10;94.40;;;;;;;-15.48;68.78;100800.24;120480;1151;104541;-82
2021/01/18 00:27:51;;;;;;;283.50;98.70;;;;;;;-15.51;68.94;100797.50;120451;1150;104417;-81
2021/01/18 00:30:23;;;;;;;261.20;96.83;;;;;;;-15.54;68.91;100808.14;120461;1150;104216;-81
2021/01/18 00:32:52;;;;;;;276.23;101.27;;;;;;;-15.60;68.89;100807.70;120432;1150;104223;-81
2021/01/18 00:35:20;;;;;;;285.40;99.13;;;;;;;-15.61;69.02;100809.33;120476;1151;104314;-81
2021/01/18 00:37:50;;;;;;;289.67;101.50;;;;;;;-15.66;69.07;100800.56;120504;1151;104353;-81
2021/01/18 00:40:20;;;;;;;296.47;106.50;;;;;;;-15.66;69.40;100817.19;120523;1151;104348;-81
2021/01/18 00:42:48;;;;;;;295.97;106.07;;;;;;;-15.68;69.10;100809.56;120424;1151;103083;-81
2021/01/18 00:45:18;;;;;;;302.35;106.50;;;;;;;-15.67;69.30;100812.94;120469;1150;104358;-81
2021/01/18 00:47:48;;;;;;;313.85;110.35;;;;;;;-15.67;69.22;100810.44;120519;1151;104416;-81
2021/01/18 00:50:20;;;;;;;301.33;108.60;;;;;;;-15.70;69.14;100811.08;120569;1151;103009;-81
2021/01/18 00:52:50;;;;;;;302.77;107.10;;;;;;;-15.69;69.35;100816.95;120424;1151;104335;-81
2021/01/18 00:55:20;;;;;;;304.50;110.70;;;;;;;-15.69;69.29;100806.95;120475;1151;104207;-82
2021/01/18 00:58:00;;;;;;;285.43;103.10;;;;;;;-15.73;69.37;100804.96;120481;1151;104379;-82
2021/01/18 01:00:29;;;;;;;299.03;107.40;;;;;;;-15.73;69.49;100802.46;120479;1151;105403;-81
2021/01/18 01:02:57;;;;;;;285.10;106.70;;;;;;;-15.72;69.39;100804.20;120448;1151;104348;-81
2021/01/18 01:05:28;;;;;;;290.97;105.00;;;;;;;-15.73;69.42;100799.96;120513;1151;104415;-81
2021/01/18 01:07:58;;;;;;;300.87;108.77;;;;;;;-15.70;68.95;100810.20;120528;1151;104301;-81
2021/01/18 01:10:31;;;;;;;294.67;107.17;;;;;;;-15.67;69.54;100795.44;120527;1151;104386;-81
2021/01/18 01:13:10;;;;;;;301.20;108.63;;;;;;;-15.71;69.50;100799.33;120466;1151;104442;-81
2021/01/18 01:15:37;;;;;;;309.10;109.53;;;;;;;-15.72;69.48;100794.20;120475;1151;104430;-81
2021/01/18 01:18:04;;;;;;;295.93;107.90;;;;;;;-15.76;69.62;100792.22;120479;1151;104376;-81
2021/01/18 01:20:32;;;;;;;303.83;109.00;;;;;;;-15.76;69.66;100792.22;120447;1151;104320;-81
2021/01/18 01:22:59;;;;;;;292.93;105.80;;;;;;;-15.76;69.69;100789.72;120463;1151;103130;-81
2021/01/18 01:25:27;;;;;;;290.60;105.73;;;;;;;-15.78;69.85;100786.23;120508;1151;104369;-82
2021/01/18 01:27:55;;;;;;;309.67;109.17;;;;;;;-15.79;69.60;100789.48;120462;1151;104497;-82
2021/01/18 01:30:23;;;;;;;293.60;108.30;;;;;;;-15.80;69.91;100785.20;120528;1151;102227;-82
2021/01/18 01:32:53;;;;;;;293.20;105.13;;;;;;;-15.79;69.64;100786.98;120494;1151;102598;-81
2021/01/18 01:35:23;;;;;;;279.67;102.97;;;;;;;-15.74;70.05;100785.72;120555;1150;104360;-81
2021/01/18 01:37:52;;;;;;;279.17;103.93;;;;;;;-15.72;69.62;100791.70;120571;1151;105584;-81
2021/01/18 01:40:20;;;;;;;289.13;104.37;;;;;;;-15.74;69.83;100788.22;120526;1151;102037;-81
2021/01/18 01:42:48;;;;;;;295.57;103.00;;;;;;;-15.75;69.81;100779.84;120449;1151;104342;-81
2021/01/18 01:45:18;;;;;;;297.57;104.77;;;;;;;-15.77;69.54;100777.98;120557;1150;104329;-81
2021/01/18 01:47:47;;;;;;;290.20;105.60;;;;;;;-15.84;69.50;100784.09;120547;1151;104462;-82
2021/01/18 01:50:16;;;;;;;303.13;109.00;;;;;;;-15.87;69.30;100775.48;120478;1151;104278;-82
2021/01/18 01:52:50;;;;;;;294.27;107.37;;;;;;;-15.86;69.58;100777.23;120485;1151;104425;-82
2021/01/18 01:55:31;;;;;;;273.33;100.23;;;;;;;-15.95;69.05;100774.88;120401;1151;104368;-82
2021/01/18 01:58:03;;;;;;;284.40;106.57;;;;;;;-15.99;69.60;100780.35;120488;1151;104319;-82
2021/01/18 02:00:38;;;;;;;295.33;104.70;;;;;;;-16.00;69.44;100779.48;120468;1151;104359;-81
2021/01/18 02:03:10;;;;;;;283.10;104.70;;;;;;;-15.99;69.54;100776.23;120521;1151;104313;-81
2021/01/18 02:05:39;;;;;;;282.87;104.90;;;;;;;-16.00;69.69;100771.98;120488;1151;104410;-82
2021/01/18 02:08:09;;;;;;;295.80;106.67;;;;;;;-16.01;69.75;100772.73;120552;1150;104426;-82
2021/01/18 02:10:38;;;;;;;285.57;100.93;;;;;;;-16.01;69.51;100776.86;120530;1151;104323;-82
2021/01/18 02:13:32;;;;;;;296.87;103.80;;;;;;;-16.07;69.32;100772.25;120503;1151;103887;-82
2021/01/18 02:16:09;;;;;;;276.07;100.53;;;;;;;-16.11;69.88;100785.25;120588;1151;104327;-82
2021/01/18 02:18:55;;;;;;;269.90;97.67;;;;;;;-16.18;69.64;100777.98;120477;1151;104426;-82
2021/01/18 02:21:25;;;;;;;270.95;97.40;;;;;;;-16.23;69.53;100775.13;120448;1151;104315;-82
2021/01/18 02:24:18;;;;;;;276.57;100.87;;;;;;;-16.28;69.58;100758.03;120540;1151;102517;-82
2021/01/18 02:26:54;;;;;;;294.70;103.53;;;;;;;-16.28;69.47;100761.39;119805;1154;104607;-81
2021/01/18 02:29:57;;;;;;;290.13;100.37;;;;;;;-16.28;69.53;100770.52;120438;1153;104376;-81
2021/01/18 02:32:45;;;;;;;272.07;96.53;;;;;;;-16.35;69.61;100769.11;119747;1152;104468;-82
2021/01/18 02:35:37;;;;;;;265.30;93.40;;;;;;;-16.40;69.64;100774.48;119780;1154;104185;-82
2021/01/18 02:38:13;;;;;;;285.07;103.40;;;;;;;-16.44;69.69;100767.50;119845;1154;104362;-82
2021/01/18 02:40:59;;;;;;;293.67;105.00;;;;;;;-16.46;70.15;100769.00;119974;1152;104617;-82
2021/01/18 02:43:28;;;;;;;;;;;;;;;-16.44;69.89;100765.00;119840;1154;103413;-82
2021/01/18 02:46:00;;;;;;;281.83;93.00;;;;;;;-16.44;70.14;100767.50;120293;1153;104471;-82
2021/01/18 02:48:29;;;;;;;284.40;101.23;;;;;;;-16.50;69.72;100768.75;119699;1154;104738;-82
2021/01/18 02:51:01;;;;;;;293.27;102.50;;;;;;;-16.51;69.99;100776.99;119848;1154;104575;-82
2021/01/18 02:53:29;;;;;;;290.70;103.70;;;;;;;-16.48;70.66;100781.36;119745;1154;104391;-82
2021/01/18 02:55:56;;;;;;;290.53;104.50;;;;;;;-16.45;70.14;100781.61;119769;1154;104464;-82
2021/01/18 02:58:27;;;;;;;282.77;102.77;;;;;;;-16.45;70.01;100789.09;119755;1154;104515;-82
2021/01/18 03:01:19;;;;;;;289.23;100.73;;;;;;;-16.46;70.42;100776.48;119749;1154;104567;-82
2021/01/18 03:04:06;;;;;;;286.43;102.10;;;;;;;-16.49;70.17;100779.61;120030;1151;104873;-82
2021/01/18 03:06:48;;;;;;;265.63;95.77;;;;;;;-16.50;69.94;100782.86;120469;1151;104323;-82
2021/01/18 03:09:31;;;;;;;263.70;93.63;;;;;;;-16.53;69.56;100798.43;120534;1151;104350;-82
2021/01/18 03:12:05;;;;;;;249.75;86.75;;;;;;;-16.60;70.01;100790.31;120486;1151;104576;-82
2021/01/18 03:14:43;;;;;;;259.50;91.80;;;;;;;-16.63;69.90;100790.94;120522;1150;104413;-82
2021/01/18 03:17:16;;;;;;;282.77;100.47;;;;;;;-16.68;69.79;100786.36;120482;1151;104272;-82
2021/01/18 03:19:45;;;;;;;272.80;97.90;;;;;;;-16.72;69.66;100795.18;120482;1150;104245;-82
2021/01/18 03:22:30;;;;;;;244.43;83.80;;;;;;;-16.74;69.96;100801.67;120546;1151;104414;-82
2021/01/18 03:25:08;;;;;;;275.55;99.07;;;;;;;-16.77;69.77;100801.42;120535;1151;104295;-82
2021/01/18 03:27:50;;;;;;;271.77;94.23;;;;;;;-16.81;70.24;100796.92;120468;1151;104461;-82
2021/01/18 03:30:20;;;;;;;274.70;98.50;;;;;;;-16.83;70.27;100786.81;120501;1151;104336;-82
2021/01/18 03:32:52;;;;;;;271.73;93.13;;;;;;;-16.82;69.98;100790.19;120451;1151;104398;-82
2021/01/18 03:35:20;;;;;;;299.80;101.70;;;;;;;-16.81;70.10;100781.95;120495;1151;104466;-82
2021/01/18 03:37:55;;;;;;;281.63;98.87;;;;;;;-16.82;70.24;100775.21;120498;1151;104344;-82
2021/01/18 03:40:26;;;;;;;283.50;100.07;;;;;;;-16.84;69.91;100779.20;120430;1151;104386;-82
2021/01/18 03:42:58;;;;;;;283.90;98.63;;;;;;;-16.86;70.54;100766.61;120501;1151;104220;-82
2021/01/18 03:45:28;;;;;;;272.13;96.93;;;;;;;-16.85;70.16;100759.99;120524;1151;104326;-82
2021/01/18 03:47:55;;;;;;;284.10;95.00;;;;;;;-16.85;70.34;100768.35;120456;1151;104439;-82
2021/01/18 03:50:23;;;;;;;289.27;102.37;;;;;;;-16.86;70.67;100766.61;120495;1151;104431;-82
2021/01/18 03:52:52;;;;;;;262.50;94.90;;;;;;;-16.87;70.72;100764.86;120468;1151;104341;-82
2021/01/18 03:55:20;;;;;;;276.53;98.13;;;;;;;-16.89;69.91;100765.45;120572;1151;104383;-82
2021/01/18 03:57:49;;;;;;;292.67;100.47;;;;;;;-16.89;69.90;100778.80;120503;1150;104297;-81
2021/01/18 04:00:21;;;;;;;280.07;100.83;;;;;;;-16.89;70.87;100773.80;120514;1151;104396;-81
2021/01/18 04:02:48;;;;;;;283.03;96.43;;;;;;;-16.86;70.69;100770.72;120530;1150;104391;-81
2021/01/18 04:05:15;;;;;;;277.97;99.23;;;;;;;-16.90;70.33;100769.56;120471;1151;104398;-81
2021/01/18 04:07:43;;;;;;;283.77;99.37;;;;;;;-16.88;70.79;100767.19;120506;1150;104884;-81
2021/01/18 04:10:12;;;;;;;264.87;96.13;;;;;;;-16.87;70.68;100771.47;120540;1151;104372;-81
2021/01/18 04:12:44;;;;;;;286.40;100.50;;;;;;;-16.88;70.47;100764.70;120581;1151;103131;-81
2021/01/18 04:15:12;;;;;;;276.30;94.33;;;;;;;-16.86;70.65;100766.61;120477;1151;103067;-81
2021/01/18 04:17:45;;;;;;;289.73;99.17;;;;;;;-16.88;70.56;100762.20;120526;1151;101939;-81
2021/01/18 04:20:13;;;;;;;272.70;100.05;;;;;;;-16.91;70.49;100762.83;120526;1151;104340;-81
2021/01/18 04:23:04;;;;;;;294.23;100.10;;;;;;;-16.91;70.80;100754.47;120504;1151;104484;-82
2021/01/18 04:25:32;;;;;;;279.55;96.70;;;;;;;-16.90;70.55;100758.70;120462;1151;104319;-81
2021/01/18 04:28:02;;;;;;;285.87;98.03;;;;;;;-16.91;70.59;100754.47;120444;1151;102571;-81
2021/01/18 04:30:33;;;;;;;283.95;99.50;;;;;;;-16.87;70.60;100751.52;120495;1151;104378;-82
2021/01/18 04:33:09;;;;;;;289.40;100.00;;;;;;;-16.89;70.67;100751.34;120478;1151;104441;-82
2021/01/18 04:35:38;;;;;;;244.37;86.28;;;;;;;-16.93;70.20;100749.35;120521;1151;104345;-82
2021/01/18 04:38:06;;;;;;;278.20;97.73;;;;;;;-16.98;70.20;100742.23;120520;1151;104343;-81
2021/01/18 04:40:34;;;;;;;304.17;102.83;;;;;;;-17.00;70.48;100742.11;120481;1150;104301;-82
2021/01/18 04:43:03;;;;;;;306.07;100.50;;;;;;;-16.96;70.58;100739.13;120504;1151;104387;-82
2021/01/18 04:45:31;;;;;;;291.30;101.40;;;;;;;-16.93;69.95;100733.52;120488;1151;104314;-82
2021/01/18 04:47:59;;;;;;;279.33;97.97;;;;;;;-16.94;70.31;100734.26;120469;1151;103259;-83
2021/01/18 04:50:28;;;;;;;292.47;101.57;;;;;;;-16.98;70.50;100729.77;120571;1151;104513;-81
2021/01/18 04:53:00;;;;;;;294.23;104.23;;;;;;;-16.98;69.96;100740.62;120516;1151;102940;-82
2021/01/18 04:55:44;;;;;;;300.23;99.67;;;;;;;-17.01;70.46;100729.52;120469;1151;104375;-82
2021/01/18 04:58:16;;;;;;;283.23;100.23;;;;;;;-17.00;70.34;100731.27;120484;1151;104312;-82
2021/01/18 05:00:49;;;;;;;269.07;92.40;;;;;;;-17.00;69.96;100736.25;120591;1151;104348;-82
2021/01/18 05:03:25;;;;;;;284.67;99.23;;;;;;;-17.01;70.40;100729.52;120564;1150;104377;-82
2021/01/18 05:06:26;;;;;;;282.40;101.30;;;;;;;-17.00;70.40;100737.12;120476;1151;103132;-82
2021/01/18 05:09:12;;;;;;;302.37;103.10;;;;;;;-17.04;70.28;100729.27;120434;1151;104309;-81
2021/01/18 05:11:39;;;;;;;282.50;99.67;;;;;;;-17.07;70.02;100733.97;120485;1151;104199;-81
2021/01/18 05:14:06;;;;;;;278.87;94.80;;;;;;;-17.14;70.32;100730.97;120513;1150;104369;-82
2021/01/18 05:16:36;;;;;;;286.33;98.47;;;;;;;-17.16;70.86;100742.44;120466;1151;104311;-81
2021/01/18 05:19:14;;;;;;;292.00;101.40;;;;;;;-17.18;70.22;100736.45;120603;1151;104483;-82
2021/01/18 05:21:45;;;;;;;294.90;100.47;;;;;;;-17.18;70.39;100733.08;120536;1151;104375;-82
2021/01/18 05:24:13;;;;;;;302.40;102.23;;;;;;;-17.22;69.79;100731.95;120521;1151;104211;-82
2021/01/18 05:26:41;;;;;;;313.67;106.63;;;;;;;-17.23;70.41;100732.70;120510;1151;104350;-82
2021/01/18 05:29:08;;;;;;;300.63;105.03;;;;;;;-17.22;70.29;100731.08;120480;1151;102108;-81
2021/01/18 05:31:39;;;;;;;294.90;104.60;;;;;;;-17.23;70.28;100734.29;120519;1151;104359;-81
2021/01/18 05:34:15;;;;;;;304.77;106.40;;;;;;;-17.21;70.24;100733.70;120447;1151;104528;-81
2021/01/18 05:36:43;;;;;;;;;;;;;;;-17.11;70.48;100721.25;120559;1151;104493;-82
2021/01/18 05:39:19;;;;;;;273.70;89.50;;;;;;;-17.04;70.67;100719.29;120542;1151;102863;-82
2021/01/18 05:41:53;;;;;;;;;;;;;;;-17.10;69.91;100729.60;120647;1151;104322;-82
2021/01/18 05:44:31;;;;;;;288.80;91.80;;;;;;;-17.13;70.34;100717.75;120629;1151;104450;-81
2021/01/18 05:47:06;;;;;;;288.80;94.37;;;;;;;-17.14;70.32;100722.61;120468;1151;104385;-82
2021/01/18 05:49:45;;;;;;;291.40;98.63;;;;;;;-17.17;70.23;100725.73;120538;1150;104847;-82
2021/01/18 05:52:27;;;;;;;298.10;103.57;;;;;;;-17.12;70.58;100723.61;120488;1151;102254;-82
2021/01/18 05:55:17;;;;;;;291.27;100.23;;;;;;;-17.16;70.02;100719.13;120576;1151;103263;-82
2021/01/18 05:57:51;;;;;;;308.80;106.73;;;;;;;-17.08;70.61;100722.25;120513;1151;104623;-82
2021/01/18 06:00:36;;;;;;;283.50;98.97;;;;;;;-17.04;70.63;100725.15;120491;1151;104374;-82
2021/01/18 06:03:09;;;;;;;301.55;104.30;;;;;;;-17.09;70.42;100725.48;120507;1151;104426;-81
2021/01/18 06:05:41;;;;;;;294.40;98.17;;;;;;;-17.15;69.80;100719.25;120562;1151;104458;-81
2021/01/18 06:08:13;;;;;;;289.93;101.43;;;;;;;-17.13;70.54;100712.77;120572;1150;104466;-81
2021/01/18 06:10:43;;;;;;;301.10;103.90;;;;;;;-17.08;70.86;100717.26;120513;1151;104361;-81
2021/01/18 06:13:18;;;;;;;298.67;101.07;;;;;;;-17.07;70.53;100719.00;120571;1151;104371;-81
2021/01/18 06:15:47;;;;;;;290.67;102.17;;;;;;;-17.18;70.02;100721.48;120462;1151;104487;-81
2021/01/18 06:18:14;;;;;;;295.70;99.40;;;;;;;-17.17;70.48;100728.22;120584;1151;104409;-82
2021/01/18 06:20:45;;;;;;;301.30;104.77;;;;;;;-17.17;70.24;100740.69;120551;1151;105939;-82
2021/01/18 06:23:21;;;;;;;293.10;101.07;;;;;;;-17.17;70.50;100744.80;120556;1151;104879;-82
2021/01/18 06:25:52;;;;;;;319.17;105.37;;;;;;;-17.11;70.86;100743.69;120529;1150;104471;-82
2021/01/18 06:28:41;;;;;;;293.77;99.87;;;;;;;-17.11;70.46;100738.70;120528;1151;104394;-81
2021/01/18 06:31:12;;;;;;;306.70;105.50;;;;;;;-17.10;70.73;100744.56;120560;1151;104375;-81
2021/01/18 06:33:49;;;;;;;300.43;103.03;;;;;;;-17.06;69.95;100745.69;120590;1151;104406;-81
2021/01/18 06:36:26;;;;;;;293.87;102.20;;;;;;;-16.98;70.45;100750.59;120518;1151;104415;-81
2021/01/18 06:38:56;;;;;;;273.00;98.43;;;;;;;-16.91;70.60;100750.34;120493;1151;104593;-82
2021/01/18 06:41:25;;;;;;;289.27;102.83;;;;;;;-16.87;70.44;100739.91;120504;1151;104316;-82
2021/01/18 06:43:53;;;;;;;282.05;99.85;;;;;;;-16.80;70.75;100746.27;120495;1151;104384;-82
2021/01/18 06:46:23;;;;;;;297.20;103.03;;;;;;;-16.77;69.90;100748.14;120543;1151;104534;-81
2021/01/18 06:48:52;;;;;;;296.20;103.67;;;;;;;-16.78;70.01;100744.77;120490;1151;103149;-81
2021/01/18 06:51:22;;;;;;;297.87;100.03;;;;;;;-16.73;70.28;100756.00;120542;1151;104412;-81
2021/01/18 06:53:53;;;;;;;284.77;98.53;;;;;;;-16.74;69.49;100749.27;120533;1151;104343;-81
2021/01/18 06:56:23;;;;;;;286.80;102.57;;;;;;;-16.76;69.77;100760.74;120569;1150;102632;-81
2021/01/18 06:59:15;;;;;;;286.97;101.83;;;;;;;-16.71;69.87;100761.99;120572;1151;104404;-81
2021/01/18 07:01:46;;;;;;;295.67;101.27;;;;;;;-16.69;69.51;100760.53;120561;1151;104538;-82
2021/01/18 07:04:17;;;;;;;297.83;103.87;;;;;;;-16.58;70.21;100762.23;120480;1151;104405;-82
2021/01/18 07:06:45;;;;;;;286.83;98.70;;;;;;;-16.46;70.09;100766.50;120570;1151;104458;-82
2021/01/18 07:09:19;;;;;;;276.10;98.90;;;;;;;-16.43;69.88;100765.13;120630;1151;104426;-82
2021/01/18 07:12:05;;;;;;;300.63;105.43;;;;;;;-16.34;69.67;100769.98;120536;1151;103063;-82
2021/01/18 07:14:32;;;;;;;262.07;97.47;;;;;;;-16.12;69.99;100772.64;120527;1151;101945;-82
2021/01/18 07:17:06;;;;;;;288.23;106.33;;;;;;;-15.97;69.81;100772.26;120476;1151;104358;-81
2021/01/18 07:19:42;;;;;;;286.40;103.33;;;;;;;-15.84;69.50;100768.22;120555;1151;102496;-81
2021/01/18 07:22:27;;;;;;;270.97;102.17;;;;;;;-15.70;69.28;100770.20;120482;1151;104380;-82
2021/01/18 07:25:09;;;;;;;283.50;103.20;;;;;;;-15.58;69.07;100771.16;120641;1150;104410;-82
2021/01/18 07:27:41;;;;;;;267.73;101.97;;;;;;;-15.42;69.13;100764.11;120443;1151;105484;-82
2021/01/18 07:30:09;;;;;;;280.67;107.00;;;;;;;-15.27;69.03;100777.79;120495;1151;104416;-82
2021/01/18 07:32:36;;;;;;;284.20;104.17;;;;;;;-15.09;68.69;100777.47;120435;1151;103052;-82
2021/01/18 07:35:05;;;;;;;272.20;102.80;;;;;;;-15.02;68.25;100782.22;120528;1151;104406;-82
2021/01/18 07:37:33;;;;;;;268.97;99.90;;;;;;;-14.96;67.87;100772.66;120499;1151;104478;-82
2021/01/18 07:40:14;;;;;;;262.05;99.52;;;;;;;-14.90;67.74;100768.12;120513;1150;104924;-82
2021/01/18 07:42:41;;;;;;;292.17;107.03;;;;;;;-14.63;68.36;100773.50;120482;1151;104462;-82
2021/01/18 07:45:12;;;;;;;279.00;104.57;;;;;;;-14.34;68.45;100771.52;120511;1150;104428;-82
2021/01/18 07:47:55;;;;;;;264.33;103.57;;;;;;;-14.31;67.27;100776.75;120470;1151;104413;-82
2021/01/18 07:50:35;;;;;;;292.40;105.80;;;;;;;-14.17;67.38;100768.63;120521;1151;104417;-82
2021/01/18 07:53:08;;;;;;;273.60;106.50;;;;;;;-13.95;67.32;100766.06;120512;1153;104462;-82
2021/01/18 07:55:37;;;;;;;261.80;99.87;;;;;;;-13.71;67.15;100771.09;120434;1151;102427;-82
2021/01/18 07:58:15;;;;;;;273.67;106.07;;;;;;;-13.58;66.95;100767.08;120477;1150;102766;-82
2021/01/18 08:00:46;;;;;;;255.63;103.00;;;;;;;-13.42;66.40;100770.69;120479;1151;104904;-82
2021/01/18 08:03:13;;;;;;;260.27;102.53;;;;;;;-13.24;66.78;100764.45;120569;1151;104349;-83
2021/01/18 08:05:42;;;;;;;262.70;103.00;;;;;;;-13.02;66.37;100770.16;120513;1151;104403;-82
2021/01/18 08:08:15;;;;;;;260.30;103.83;;;;;;;-12.99;65.79;100777.03;120482;1151;104435;-82
2021/01/18 08:10:58;;;;;;;254.07;104.20;;;;;;;-12.83;65.55;100773.17;120452;1151;101993;-82
2021/01/18 08:13:49;;;;;;;267.10;104.50;;;;;;;-12.39;65.46;100777.83;120496;1151;104409;-82
2021/01/18 08:16:30;;;;;;;252.27;101.77;;;;;;;-12.03;64.83;100779.40;120514;1150;104396;-82
2021/01/18 08:19:12;;;;;;;244.07;101.57;;;;;;;-12.03;63.69;100781.05;120474;1151;104304;-82
2021/01/18 08:21:45;;;;;;;241.70;101.03;;;;;;;-11.74;65.46;100782.92;120442;1150;104202;-82
2021/01/18 08:24:36;;;;;;;;;;;;;;;-11.20;64.24;100785.57;120512;1150;104423;-84
2021/01/18 08:27:08;;;;;;;242.40;99.77;;;;;;;-10.94;64.40;100781.30;120515;1151;104356;-85
2021/01/18 08:29:44;;;;;;;251.27;102.10;;;;;;;-10.62;63.97;100793.32;120507;1150;104393;-84
2021/01/18 08:32:20;;;;;;;220.57;100.43;;;;;;;-10.34;62.80;100793.34;120474;1151;104329;-83
2021/01/18 08:34:52;;;;;;;237.43;102.00;;;;;;;-10.07;62.66;100795.80;120506;1151;104441;-83
2021/01/18 08:37:20;;;;;;;227.23;98.23;;;;;;;-9.94;61.47;100799.05;120446;1151;104332;-83
2021/01/18 08:40:08;;;;;;;240.40;105.20;;;;;;;-9.65;61.69;100798.21;120509;1151;104364;-83
2021/01/18 08:42:38;;;;;;;246.97;101.63;;;;;;;-9.39;61.71;100789.56;120484;1153;104320;-83
2021/01/18 08:45:22;;;;;;;232.60;99.83;;;;;;;-9.25;60.77;100789.55;120503;1151;104332;-83
2021/01/18 08:48:04;;;;;;;231.43;100.50;;;;;;;-8.98;60.05;100794.37;120478;1151;104383;-83
2021/01/18 08:50:41;;;;;;;234.93;104.63;;;;;;;-8.93;59.86;100787.92;120488;1150;104379;-83
2021/01/18 08:53:26;;;;;;;238.32;107.03;;;;;;;-8.83;60.19;100785.09;120466;1151;104338;-83
2021/01/18 08:55:55;;;;;;;235.23;104.40;;;;;;;-8.46;60.34;100794.62;120491;1151;104463;-83
2021/01/18 08:58:36;;;;;;;240.63;106.63;;;;;;;-8.27;59.00;100788.03;120486;1150;104296;-82
2021/01/18 09:01:10;;;;;;;243.63;108.87;;;;;;;-8.33;57.63;100796.98;120436;1151;104461;-83
2021/01/18 09:03:38;;;;;;;237.10;111.80;;;;;;;-8.39;57.52;100786.59;120566;1151;103066;-83
2021/01/18 09:06:05;;;;;;;235.37;109.23;;;;;;;-8.39;57.80;100786.59;120487;1151;104451;-83
2021/01/18 09:08:32;;;;;;;246.15;112.88;;;;;;;-8.53;57.72;100785.86;120496;1151;104486;-83
2021/01/18 09:11:05;;;;;;;244.62;110.52;;;;;;;-8.64;57.41;100786.94;120470;1151;104542;-83
2021/01/18 09:13:35;;;;;;;244.10;112.90;;;;;;;-8.77;57.06;100780.38;120466;1150;104420;-83
2021/01/18 09:16:07;;;;;;;238.53;108.53;;;;;;;-8.89;56.54;100777.19;120526;1151;105076;-83
2021/01/18 09:18:35;;;;;;;241.97;107.23;;;;;;;-9.02;56.77;100769.72;120515;1151;106599;-83
2021/01/18 09:21:07;;;;;;;233.00;101.93;;;;;;;-9.23;56.91;100774.48;120531;1151;104325;-83
2021/01/18 09:23:35;;;;;;;243.43;108.13;;;;;;;-9.41;56.70;100774.33;120487;1151;104399;-83
2021/01/18 09:26:16;;;;;;;254.90;109.47;;;;;;;-9.43;57.08;100775.03;120462;1150;104495;-83
2021/01/18 09:28:52;;;;;;;242.43;105.63;;;;;;;-9.38;57.40;100784.59;120468;1151;104401;-83
2021/01/18 09:31:20;;;;;;;255.97;113.17;;;;;;;-9.58;56.96;100780.09;120528;1151;104401;-82
2021/01/18 09:33:48;;;;;;;241.03;107.87;;;;;;;-9.53;58.07;100779.55;120613;1151;104480;-84
2021/01/18 09:36:17;;;;;;;272.67;120.07;;;;;;;-9.53;57.13;100783.73;120620;1151;104502;-83
2021/01/18 09:38:47;;;;;;;245.70;108.27;;;;;;;-9.70;57.83;100782.78;120711;1151;104379;-82
2021/01/18 09:41:15;;;;;;;245.13;106.57;;;;;;;-9.88;56.70;100779.20;120811;1151;103088;-82
2021/01/18 09:43:44;;;;;;;237.33;103.60;;;;;;;-10.10;56.78;100792.23;120777;1151;104361;-82
2021/01/18 09:46:14;;;;;;;229.07;94.83;;;;;;;-10.33;57.15;100787.52;120528;1151;104439;-82
2021/01/18 09:48:49;;;;;;;225.73;98.77;;;;;;;-10.50;57.33;100784.86;120582;1151;104448;-82
2021/01/18 09:51:16;;;;;;;191.30;83.80;;;;;;;-10.58;56.73;100781.02;120519;1151;102627;-83
2021/01/18 09:53:43;;;;;;;198.97;87.30;;;;;;;-10.79;57.97;100774.66;120509;1151;104352;-83
2021/01/18 09:56:15;;;;;;;193.07;80.57;;;;;;;-10.87;57.18;100770.81;120505;1150;104378;-82
2021/01/18 09:58:54;;;;;;;186.37;79.87;;;;;;;-10.93;58.59;100775.48;120520;1151;102626;-84
2021/01/18 10:01:32;;;;;;;177.03;76.40;;;;;;;-10.82;57.50;100774.47;120593;1151;104431;-82
2021/01/18 10:04:03;;;;;;;179.93;76.83;;;;;;;-10.75;58.22;100771.56;120486;1151;107763;-83
2021/01/18 10:06:33;;;;;;;175.90;74.17;;;;;;;-10.70;57.66;100757.59;120502;1151;104847;-83
2021/01/18 10:09:07;;;;;;;167.23;74.47;;;;;;;-10.53;58.26;100756.95;120557;1150;103294;-83
2021/01/18 10:11:45;;;;;;;161.10;69.83;;;;;;;-10.33;57.87;100762.30;120522;1151;104359;-83
2021/01/18 10:14:24;;;;;;;144.27;64.87;;;;;;;-10.17;58.69;100749.78;120460;1150;105161;-84
2021/01/18 10:17:04;;;;;;;148.57;63.60;;;;;;;-10.01;58.89;100756.59;120523;1150;104443;-83
2021/01/18 10:19:34;;;;;;;150.53;65.23;;;;;;;-9.86;58.77;100753.30;120445;1151;103786;-83
2021/01/18 10:22:04;;;;;;;149.47;64.40;;;;;;;-9.64;58.31;100747.80;120446;1151;104412;-83
2021/01/18 10:24:34;;;;;;;138.50;61.53;;;;;;;-9.50;58.46;100741.87;120446;1151;104378;-84
2021/01/18 10:27:13;;;;;;;139.07;60.80;;;;;;;-9.41;58.19;100743.16;120498;1151;103264;-83
2021/01/18 10:29:41;;;;;;;136.57;59.10;;;;;;;-9.32;57.49;100742.02;120392;1151;104878;-84
2021/01/18 10:32:10;;;;;;;136.63;61.77;;;;;;;-9.07;58.31;100741.69;120421;1151;104442;-84
2021/01/18 10:34:38;;;;;;;128.90;59.73;;;;;;;-8.91;57.66;100735.80;120500;1151;104385;-84
2021/01/18 10:37:19;;;;;;;136.53;60.73;;;;;;;-8.58;58.37;100739.23;120437;1151;104535;-83
2021/01/18 10:39:47;;;;;;;135.55;61.15;;;;;;;-8.14;58.27;100741.45;120415;1151;104160;-83
2021/01/18 10:42:17;;;;;;;131.50;60.40;;;;;;;-7.68;58.23;100729.42;120430;1151;104291;-83
2021/01/18 10:44:52;;;;;;;135.10;60.53;;;;;;;-7.26;58.08;100733.91;120486;1151;104436;-84
2021/01/18 10:47:25;;;;;;;139.30;62.30;;;;;;;-6.88;57.32;100741.61;120494;1151;102559;-82
2021/01/18 10:49:55;;;;;;;127.15;58.15;;;;;;;-6.55;56.80;100737.18;120440;1151;104431;-83
2021/01/18 10:52:41;;;;;;;131.13;57.00;;;;;;;-6.30;56.72;100734.03;120545;1151;104578;-84
2021/01/18 10:55:13;;;;;;;128.83;60.50;;;;;;;-6.03;56.02;100738.56;120498;1151;104214;-84
2021/01/18 10:57:45;;;;;;;127.07;60.57;;;;;;;-5.98;55.13;100727.78;120562;1151;104403;-83
2021/01/18 11:00:21;;;;;;;137.30;62.90;;;;;;;-5.91;54.76;100731.47;120460;1151;104327;-81
2021/01/18 11:02:57;;;;;;;135.60;63.00;;;;;;;-5.62;55.74;100722.44;120496;1151;104362;-83